sensor_id;sensor_type;location;lat;lon;timestamp;temperature;humidity
20574;DHT22;10445;50.216;7.912;2024-02-23T00:01:16;5.10;39.50
20574;DHT22;10445;50.216;7.912;2024-02-23T00:03:44;5.00;41.70
20574;DHT22;10445;50.216;7.912;2024-02-23T00:06:13;4.80;44.70
20574;DHT22;10445;50.216;7.912;2024-02-23T00:08:42;4.60;48.30
20574;DHT22;10445;50.216;7.912;2024-02-23T00:11:10;4.50;51.80
20574;DHT22;10445;50.216;7.912;2024-02-23T00:13:39;4.30;51.00
20574;DHT22;10445;50.216;7.912;2024-02-23T00:16:08;4.20;56.20
20574;DHT22;10445;50.216;7.912;2024-02-23T00:18:38;4.10;57.10
20574;DHT22;10445;50.216;7.912;2024-02-23T00:21:06;4.10;56.80
20574;DHT22;10445;50.216;7.912;2024-02-23T00:23:35;4.00;56.80
20574;DHT22;10445;50.216;7.912;2024-02-23T00:26:03;4.00;60.30
20574;DHT22;10445;50.216;7.912;2024-02-23T00:28:32;4.00;61.20
20574;DHT22;10445;50.216;7.912;2024-02-23T00:31:01;3.90;64.00
20574;DHT22;10445;50.216;7.912;2024-02-23T00:33:31;3.90;63.10
20574;DHT22;10445;50.216;7.912;2024-02-23T00:36:00;3.90;61.70
20574;DHT22;10445;50.216;7.912;2024-02-23T00:38:29;3.80;61.60
20574;DHT22;10445;50.216;7.912;2024-02-23T00:40:57;3.80;62.90
20574;DHT22;10445;50.216;7.912;2024-02-23T00:43:26;3.80;64.20
20574;DHT22;10445;50.216;7.912;2024-02-23T00:45:56;3.80;65.30
20574;DHT22;10445;50.216;7.912;2024-02-23T00:48:24;3.70;65.70
20574;DHT22;10445;50.216;7.912;2024-02-23T00:50:55;3.70;62.00
20574;DHT22;10445;50.216;7.912;2024-02-23T00:53:23;3.70;63.10
20574;DHT22;10445;50.216;7.912;2024-02-23T00:55:52;3.70;62.40
20574;DHT22;10445;50.216;7.912;2024-02-23T00:58:21;3.70;62.40
20574;DHT22;10445;50.216;7.912;2024-02-23T01:00:50;3.70;63.80
20574;DHT22;10445;50.216;7.912;2024-02-23T01:03:19;3.60;65.50
20574;DHT22;10445;50.216;7.912;2024-02-23T01:05:48;3.60;65.80
20574;DHT22;10445;50.216;7.912;2024-02-23T01:08:19;3.60;65.30
20574;DHT22;10445;50.216;7.912;2024-02-23T01:10:50;3.60;66.80
20574;DHT22;10445;50.216;7.912;2024-02-23T01:13:19;3.50;65.10
20574;DHT22;10445;50.216;7.912;2024-02-23T01:15:53;3.50;63.10
20574;DHT22;10445;50.216;7.912;2024-02-23T01:18:22;3.50;61.70
20574;DHT22;10445;50.216;7.912;2024-02-23T01:20:53;3.50;61.60
20574;DHT22;10445;50.216;7.912;2024-02-23T01:23:25;3.50;61.30
20574;DHT22;10445;50.216;7.912;2024-02-23T01:25:55;3.50;61.80
20574;DHT22;10445;50.216;7.912;2024-02-23T01:28:26;3.50;60.10
20574;DHT22;10445;50.216;7.912;2024-02-23T01:31:01;3.50;60.60
20574;DHT22;10445;50.216;7.912;2024-02-23T01:33:50;3.50;60.00
20574;DHT22;10445;50.216;7.912;2024-02-23T01:36:27;3.40;60.30
20574;DHT22;10445;50.216;7.912;2024-02-23T01:39:06;3.40;60.80
20574;DHT22;10445;50.216;7.912;2024-02-23T01:41:35;3.40;61.20
20574;DHT22;10445;50.216;7.912;2024-02-23T01:44:04;3.40;61.30
20574;DHT22;10445;50.216;7.912;2024-02-23T01:46:33;3.30;60.50
20574;DHT22;10445;50.216;7.912;2024-02-23T01:49:01;3.30;61.50
20574;DHT22;10445;50.216;7.912;2024-02-23T01:51:33;3.40;61.30
20574;DHT22;10445;50.216;7.912;2024-02-23T01:54:30;3.30;62.10
20574;DHT22;10445;50.216;7.912;2024-02-23T01:56:59;3.30;63.10
20574;DHT22;10445;50.216;7.912;2024-02-23T01:59:49;3.30;62.00
20574;DHT22;10445;50.216;7.912;2024-02-23T02:02:18;3.30;62.70
20574;DHT22;10445;50.216;7.912;2024-02-23T02:04:50;3.20;62.50
20574;DHT22;10445;50.216;7.912;2024-02-23T02:07:19;3.20;59.80
20574;DHT22;10445;50.216;7.912;2024-02-23T02:09:51;3.20;59.10
20574;DHT22;10445;50.216;7.912;2024-02-23T02:12:26;3.20;57.30
20574;DHT22;10445;50.216;7.912;2024-02-23T02:14:55;3.20;56.10
20574;DHT22;10445;50.216;7.912;2024-02-23T02:17:24;3.20;53.80
20574;DHT22;10445;50.216;7.912;2024-02-23T02:19:53;3.20;53.70
20574;DHT22;10445;50.216;7.912;2024-02-23T02:22:23;3.10;53.80
20574;DHT22;10445;50.216;7.912;2024-02-23T02:24:53;3.10;53.70
20574;DHT22;10445;50.216;7.912;2024-02-23T02:27:22;3.10;53.60
20574;DHT22;10445;50.216;7.912;2024-02-23T02:29:51;3.10;53.00
20574;DHT22;10445;50.216;7.912;2024-02-23T02:32:19;3.10;53.30
20574;DHT22;10445;50.216;7.912;2024-02-23T02:34:49;3.10;51.40
20574;DHT22;10445;50.216;7.912;2024-02-23T02:37:18;3.10;52.90
20574;DHT22;10445;50.216;7.912;2024-02-23T02:39:47;3.10;50.90
20574;DHT22;10445;50.216;7.912;2024-02-23T02:42:17;3.10;51.90
20574;DHT22;10445;50.216;7.912;2024-02-23T02:44:46;3.10;52.00
20574;DHT22;10445;50.216;7.912;2024-02-23T02:47:15;3.10;51.60
20574;DHT22;10445;50.216;7.912;2024-02-23T02:49:44;3.10;51.50
20574;DHT22;10445;50.216;7.912;2024-02-23T02:52:13;3.10;49.10
20574;DHT22;10445;50.216;7.912;2024-02-23T02:54:41;3.20;48.60
20574;DHT22;10445;50.216;7.912;2024-02-23T02:57:10;3.20;49.90
20574;DHT22;10445;50.216;7.912;2024-02-23T02:59:40;3.20;50.70
20574;DHT22;10445;50.216;7.912;2024-02-23T03:02:09;3.10;53.10
20574;DHT22;10445;50.216;7.912;2024-02-23T03:04:38;3.20;49.60
20574;DHT22;10445;50.216;7.912;2024-02-23T03:07:06;3.20;48.90
20574;DHT22;10445;50.216;7.912;2024-02-23T03:09:35;3.20;50.00
20574;DHT22;10445;50.216;7.912;2024-02-23T03:12:04;3.20;46.40
20574;DHT22;10445;50.216;7.912;2024-02-23T03:14:33;3.20;48.10
20574;DHT22;10445;50.216;7.912;2024-02-23T03:17:07;3.10;48.10
20574;DHT22;10445;50.216;7.912;2024-02-23T03:19:37;3.10;45.80
20574;DHT22;10445;50.216;7.912;2024-02-23T03:22:07;3.10;47.80
20574;DHT22;10445;50.216;7.912;2024-02-23T03:24:38;3.10;49.20
20574;DHT22;10445;50.216;7.912;2024-02-23T03:27:07;3.10;50.10
20574;DHT22;10445;50.216;7.912;2024-02-23T03:29:37;3.00;52.50
20574;DHT22;10445;50.216;7.912;2024-02-23T03:32:10;3.00;52.10
20574;DHT22;10445;50.216;7.912;2024-02-23T03:34:39;3.00;54.00
20574;DHT22;10445;50.216;7.912;2024-02-23T03:37:08;3.10;52.60
20574;DHT22;10445;50.216;7.912;2024-02-23T03:42:26;3.20;53.90
20574;DHT22;10445;50.216;7.912;2024-02-23T03:44:55;3.30;53.00
20574;DHT22;10445;50.216;7.912;2024-02-23T03:47:25;3.40;52.90
20574;DHT22;10445;50.216;7.912;2024-02-23T03:49:54;3.40;51.10
20574;DHT22;10445;50.216;7.912;2024-02-23T03:52:23;3.40;54.20
20574;DHT22;10445;50.216;7.912;2024-02-23T03:54:54;3.40;54.00
20574;DHT22;10445;50.216;7.912;2024-02-23T03:57:23;3.30;54.40
20574;DHT22;10445;50.216;7.912;2024-02-23T03:59:52;3.20;55.10
20574;DHT22;10445;50.216;7.912;2024-02-23T04:02:21;3.20;56.60
20574;DHT22;10445;50.216;7.912;2024-02-23T04:04:52;3.10;57.00
20574;DHT22;10445;50.216;7.912;2024-02-23T04:07:21;3.10;54.90
20574;DHT22;10445;50.216;7.912;2024-02-23T04:09:49;3.10;55.30
20574;DHT22;10445;50.216;7.912;2024-02-23T04:12:20;3.20;54.80
20574;DHT22;10445;50.216;7.912;2024-02-23T04:14:48;3.30;55.60
20574;DHT22;10445;50.216;7.912;2024-02-23T04:17:16;3.30;54.00
20574;DHT22;10445;50.216;7.912;2024-02-23T04:19:45;3.30;55.70
20574;DHT22;10445;50.216;7.912;2024-02-23T04:22:15;3.30;57.00
20574;DHT22;10445;50.216;7.912;2024-02-23T04:24:44;3.30;56.90
20574;DHT22;10445;50.216;7.912;2024-02-23T04:27:13;3.30;57.50
20574;DHT22;10445;50.216;7.912;2024-02-23T04:29:41;3.30;57.00
20574;DHT22;10445;50.216;7.912;2024-02-23T04:32:10;3.30;58.80
20574;DHT22;10445;50.216;7.912;2024-02-23T04:34:38;3.30;57.50
20574;DHT22;10445;50.216;7.912;2024-02-23T04:37:08;3.30;57.20
20574;DHT22;10445;50.216;7.912;2024-02-23T04:39:37;3.30;59.00
20574;DHT22;10445;50.216;7.912;2024-02-23T04:42:09;3.30;59.10
20574;DHT22;10445;50.216;7.912;2024-02-23T04:44:37;3.20;60.90
20574;DHT22;10445;50.216;7.912;2024-02-23T04:47:06;3.20;59.80
20574;DHT22;10445;50.216;7.912;2024-02-23T04:49:34;3.20;57.10
20574;DHT22;10445;50.216;7.912;2024-02-23T06:50:34;3.00;48.40
20574;DHT22;10445;50.216;7.912;2024-02-23T06:53:03;3.10;49.60
20574;DHT22;10445;50.216;7.912;2024-02-23T06:55:34;3.10;50.60
20574;DHT22;10445;50.216;7.912;2024-02-23T09:18:47;4.30;44.00
20574;DHT22;10445;50.216;7.912;2024-02-23T09:21:20;4.30;47.00
20574;DHT22;10445;50.216;7.912;2024-02-23T09:23:49;4.40;46.20
20574;DHT22;10445;50.216;7.912;2024-02-23T09:26:17;4.40;47.50
20574;DHT22;10445;50.216;7.912;2024-02-23T09:28:45;4.40;47.70
20574;DHT22;10445;50.216;7.912;2024-02-23T11:31:11;6.20;13.00
20574;DHT22;10445;50.216;7.912;2024-02-23T11:33:40;6.30;12.50
20574;DHT22;10445;50.216;7.912;2024-02-23T11:36:09;6.30;12.60
20574;DHT22;10445;50.216;7.912;2024-02-23T11:38:39;6.20;9.00
20574;DHT22;10445;50.216;7.912;2024-02-23T11:41:07;6.10;12.50
20574;DHT22;10445;50.216;7.912;2024-02-23T11:43:37;6.00;8.40
20574;DHT22;10445;50.216;7.912;2024-02-23T11:46:05;6.10;14.60
20574;DHT22;10445;50.216;7.912;2024-02-23T11:48:36;6.10;13.20
20574;DHT22;10445;50.216;7.912;2024-02-23T11:51:04;6.10;10.10
20574;DHT22;10445;50.216;7.912;2024-02-23T11:53:33;6.10;12.20
20574;DHT22;10445;50.216;7.912;2024-02-23T11:56:04;6.00;9.90
20574;DHT22;10445;50.216;7.912;2024-02-23T11:58:32;6.00;10.70
20574;DHT22;10445;50.216;7.912;2024-02-23T12:01:01;5.90;10.40
20574;DHT22;10445;50.216;7.912;2024-02-23T12:03:30;6.00;15.10
20574;DHT22;10445;50.216;7.912;2024-02-23T12:06:00;6.00;6.60
20574;DHT22;10445;50.216;7.912;2024-02-23T12:08:30;6.10;14.40
20574;DHT22;10445;50.216;7.912;2024-02-23T12:11:05;6.20;12.70
20574;DHT22;10445;50.216;7.912;2024-02-23T12:13:35;6.30;10.20
20574;DHT22;10445;50.216;7.912;2024-02-23T12:16:06;6.20;8.70
20574;DHT22;10445;50.216;7.912;2024-02-23T12:18:35;6.20;7.60
20574;DHT22;10445;50.216;7.912;2024-02-23T12:21:07;6.30;4.10
20574;DHT22;10445;50.216;7.912;2024-02-23T12:23:41;6.60;1.00
20574;DHT22;10445;50.216;7.912;2024-02-23T12:26:12;6.70;1.60
20574;DHT22;10445;50.216;7.912;2024-02-23T12:28:41;6.90;1.70
20574;DHT22;10445;50.216;7.912;2024-02-23T12:31:10;6.80;1.20
20574;DHT22;10445;50.216;7.912;2024-02-23T12:33:39;6.70;1.00
20574;DHT22;10445;50.216;7.912;2024-02-23T12:36:10;6.60;1.00
20574;DHT22;10445;50.216;7.912;2024-02-23T12:38:39;6.50;1.00
20574;DHT22;10445;50.216;7.912;2024-02-23T12:41:08;6.50;1.00
20574;DHT22;10445;50.216;7.912;2024-02-23T12:43:38;6.30;3.10
20574;DHT22;10445;50.216;7.912;2024-02-23T12:46:14;6.60;10.80
20574;DHT22;10445;50.216;7.912;2024-02-23T12:48:43;7.40;15.00
20574;DHT22;10445;50.216;7.912;2024-02-23T12:51:13;7.90;5.80
20574;DHT22;10445;50.216;7.912;2024-02-23T12:53:43;7.80;1.00
20574;DHT22;10445;50.216;7.912;2024-02-23T12:56:13;7.70;1.00
20574;DHT22;10445;50.216;7.912;2024-02-23T12:58:43;7.80;1.00
20574;DHT22;10445;50.216;7.912;2024-02-23T13:01:12;7.90;1.00
20574;DHT22;10445;50.216;7.912;2024-02-23T13:03:41;8.00;1.00
20574;DHT22;10445;50.216;7.912;2024-02-23T13:06:10;8.00;1.00
20574;DHT22;10445;50.216;7.912;2024-02-23T13:08:41;8.00;1.00
20574;DHT22;10445;50.216;7.912;2024-02-23T13:11:10;7.90;1.00
20574;DHT22;10445;50.216;7.912;2024-02-23T13:13:39;7.80;1.00
20574;DHT22;10445;50.216;7.912;2024-02-23T13:16:10;7.50;1.00
20574;DHT22;10445;50.216;7.912;2024-02-23T13:18:42;7.40;1.00
20574;DHT22;10445;50.216;7.912;2024-02-23T13:21:14;7.40;1.00
20574;DHT22;10445;50.216;7.912;2024-02-23T13:23:44;7.40;1.00
20574;DHT22;10445;50.216;7.912;2024-02-23T13:26:16;7.20;1.00
20574;DHT22;10445;50.216;7.912;2024-02-23T13:28:46;7.20;1.00
20574;DHT22;10445;50.216;7.912;2024-02-23T13:31:14;7.20;1.00
20574;DHT22;10445;50.216;7.912;2024-02-23T13:33:44;7.30;1.00
20574;DHT22;10445;50.216;7.912;2024-02-23T13:36:13;7.40;1.00
20574;DHT22;10445;50.216;7.912;2024-02-23T13:38:43;7.50;1.00
20574;DHT22;10445;50.216;7.912;2024-02-23T13:41:12;7.40;1.00
20574;DHT22;10445;50.216;7.912;2024-02-23T13:43:41;7.40;1.00
20574;DHT22;10445;50.216;7.912;2024-02-23T13:46:10;7.10;1.00
20574;DHT22;10445;50.216;7.912;2024-02-23T13:48:39;7.10;1.00
20574;DHT22;10445;50.216;7.912;2024-02-23T13:51:08;7.00;1.00
20574;DHT22;10445;50.216;7.912;2024-02-23T13:53:37;6.90;1.00
20574;DHT22;10445;50.216;7.912;2024-02-23T13:56:08;6.90;1.00
20574;DHT22;10445;50.216;7.912;2024-02-23T13:58:37;6.80;1.00
20574;DHT22;10445;50.216;7.912;2024-02-23T14:01:07;6.70;1.00
20574;DHT22;10445;50.216;7.912;2024-02-23T14:03:38;6.70;1.00
20574;DHT22;10445;50.216;7.912;2024-02-23T14:06:09;6.60;1.00
20574;DHT22;10445;50.216;7.912;2024-02-23T14:14:25;6.90;1.00
20574;DHT22;10445;50.216;7.912;2024-02-23T14:16:53;6.90;1.00
20574;DHT22;10445;50.216;7.912;2024-02-23T14:19:23;6.90;1.00
20574;DHT22;10445;50.216;7.912;2024-02-23T14:21:52;6.80;1.00
20574;DHT22;10445;50.216;7.912;2024-02-23T14:24:20;6.60;1.00
20574;DHT22;10445;50.216;7.912;2024-02-23T14:26:48;6.50;1.00
20574;DHT22;10445;50.216;7.912;2024-02-23T14:29:16;6.40;1.00
20574;DHT22;10445;50.216;7.912;2024-02-23T14:31:46;6.50;1.00
20574;DHT22;10445;50.216;7.912;2024-02-23T14:34:16;6.50;1.00
20574;DHT22;10445;50.216;7.912;2024-02-23T14:36:44;6.60;1.00
20574;DHT22;10445;50.216;7.912;2024-02-23T14:39:13;6.60;1.00
20574;DHT22;10445;50.216;7.912;2024-02-23T14:41:41;6.50;1.00
20574;DHT22;10445;50.216;7.912;2024-02-23T14:44:09;6.50;1.00
20574;DHT22;10445;50.216;7.912;2024-02-23T14:46:37;6.50;1.00
20574;DHT22;10445;50.216;7.912;2024-02-23T14:49:10;6.50;1.00
20574;DHT22;10445;50.216;7.912;2024-02-23T14:51:39;6.50;1.00
20574;DHT22;10445;50.216;7.912;2024-02-23T14:54:09;6.60;1.00
20574;DHT22;10445;50.216;7.912;2024-02-23T14:56:38;6.70;1.00
20574;DHT22;10445;50.216;7.912;2024-02-23T14:59:07;6.70;1.00
20574;DHT22;10445;50.216;7.912;2024-02-23T15:01:37;6.70;1.00
20574;DHT22;10445;50.216;7.912;2024-02-23T15:04:07;6.80;1.00
20574;DHT22;10445;50.216;7.912;2024-02-23T15:06:37;6.90;1.00
20574;DHT22;10445;50.216;7.912;2024-02-23T15:09:05;6.90;1.00
20574;DHT22;10445;50.216;7.912;2024-02-23T15:11:34;6.60;1.00
20574;DHT22;10445;50.216;7.912;2024-02-23T15:14:02;6.50;1.00
20574;DHT22;10445;50.216;7.912;2024-02-23T15:16:30;6.40;1.00
20574;DHT22;10445;50.216;7.912;2024-02-23T15:18:58;6.40;1.00
20574;DHT22;10445;50.216;7.912;2024-02-23T15:21:26;6.40;1.00
20574;DHT22;10445;50.216;7.912;2024-02-23T15:23:56;6.40;1.00
20574;DHT22;10445;50.216;7.912;2024-02-23T15:26:24;6.50;1.00
20574;DHT22;10445;50.216;7.912;2024-02-23T15:28:52;6.40;1.00
20574;DHT22;10445;50.216;7.912;2024-02-23T15:31:21;6.30;1.00
20574;DHT22;10445;50.216;7.912;2024-02-23T15:33:49;6.30;1.00
20574;DHT22;10445;50.216;7.912;2024-02-23T15:36:18;6.30;1.00
20574;DHT22;10445;50.216;7.912;2024-02-23T15:38:46;6.30;1.00
20574;DHT22;10445;50.216;7.912;2024-02-23T15:41:15;6.30;1.00
20574;DHT22;10445;50.216;7.912;2024-02-23T15:43:43;6.30;1.00
20574;DHT22;10445;50.216;7.912;2024-02-23T15:46:11;6.30;1.00
20574;DHT22;10445;50.216;7.912;2024-02-23T15:48:39;6.40;1.00
20574;DHT22;10445;50.216;7.912;2024-02-23T15:51:07;6.30;1.00
20574;DHT22;10445;50.216;7.912;2024-02-23T15:53:54;6.30;1.00
20574;DHT22;10445;50.216;7.912;2024-02-23T15:56:24;6.20;1.00
20574;DHT22;10445;50.216;7.912;2024-02-23T15:58:52;6.20;1.00
20574;DHT22;10445;50.216;7.912;2024-02-23T16:01:21;6.30;1.00
20574;DHT22;10445;50.216;7.912;2024-02-23T16:03:49;6.30;1.00
20574;DHT22;10445;50.216;7.912;2024-02-23T16:06:17;6.20;1.00
20574;DHT22;10445;50.216;7.912;2024-02-23T16:08:46;6.20;1.00
20574;DHT22;10445;50.216;7.912;2024-02-23T16:11:15;6.20;1.00
20574;DHT22;10445;50.216;7.912;2024-02-23T16:13:45;6.20;1.00
20574;DHT22;10445;50.216;7.912;2024-02-23T16:16:13;6.10;1.00
20574;DHT22;10445;50.216;7.912;2024-02-23T16:18:41;6.10;1.00
20574;DHT22;10445;50.216;7.912;2024-02-23T16:21:09;6.10;1.00
20574;DHT22;10445;50.216;7.912;2024-02-23T16:23:41;6.20;1.00
20574;DHT22;10445;50.216;7.912;2024-02-23T16:26:10;6.10;1.00
20574;DHT22;10445;50.216;7.912;2024-02-23T16:28:38;6.00;1.00
20574;DHT22;10445;50.216;7.912;2024-02-23T16:31:08;6.00;1.00
20574;DHT22;10445;50.216;7.912;2024-02-23T16:33:36;5.90;1.00
20574;DHT22;10445;50.216;7.912;2024-02-23T16:36:04;5.90;1.00
20574;DHT22;10445;50.216;7.912;2024-02-23T16:38:32;5.80;1.00
20574;DHT22;10445;50.216;7.912;2024-02-23T16:41:01;5.80;1.00
20574;DHT22;10445;50.216;7.912;2024-02-23T16:43:29;5.80;1.00
20574;DHT22;10445;50.216;7.912;2024-02-23T16:45:57;5.70;1.00
20574;DHT22;10445;50.216;7.912;2024-02-23T16:48:26;5.60;1.30
20574;DHT22;10445;50.216;7.912;2024-02-23T16:50:54;5.40;16.20
20574;DHT22;10445;50.216;7.912;2024-02-23T16:53:23;5.20;20.40
20574;DHT22;10445;50.216;7.912;2024-02-23T16:55:51;5.10;32.40
20574;DHT22;10445;50.216;7.912;2024-02-23T16:58:21;4.90;38.10
20574;DHT22;10445;50.216;7.912;2024-02-23T17:00:51;4.80;41.60
20574;DHT22;10445;50.216;7.912;2024-02-23T17:03:22;4.70;47.90
20574;DHT22;10445;50.216;7.912;2024-02-23T17:05:51;4.60;52.10
20574;DHT22;10445;50.216;7.912;2024-02-23T17:08:19;4.50;52.90
20574;DHT22;10445;50.216;7.912;2024-02-23T17:10:47;4.40;54.20
20574;DHT22;10445;50.216;7.912;2024-02-23T17:13:16;4.30;55.70
20574;DHT22;10445;50.216;7.912;2024-02-23T17:15:45;4.30;57.50
20574;DHT22;10445;50.216;7.912;2024-02-23T17:18:14;4.20;57.90
20574;DHT22;10445;50.216;7.912;2024-02-23T17:20:42;4.10;59.30
20574;DHT22;10445;50.216;7.912;2024-02-23T17:23:12;4.10;60.60
20574;DHT22;10445;50.216;7.912;2024-02-23T17:25:40;4.00;60.60
20574;DHT22;10445;50.216;7.912;2024-02-23T17:28:08;4.00;60.70
20574;DHT22;10445;50.216;7.912;2024-02-23T17:30:39;4.00;62.20
20574;DHT22;10445;50.216;7.912;2024-02-23T17:33:08;4.00;62.90
20574;DHT22;10445;50.216;7.912;2024-02-23T17:35:36;4.00;63.40
20574;DHT22;10445;50.216;7.912;2024-02-23T17:38:05;4.00;64.40
20574;DHT22;10445;50.216;7.912;2024-02-23T17:40:35;3.90;65.50
20574;DHT22;10445;50.216;7.912;2024-02-23T17:43:03;3.90;66.60
20574;DHT22;10445;50.216;7.912;2024-02-23T17:45:31;3.90;66.80
20574;DHT22;10445;50.216;7.912;2024-02-23T17:47:59;3.90;68.20
20574;DHT22;10445;50.216;7.912;2024-02-23T17:50:28;3.90;67.90
20574;DHT22;10445;50.216;7.912;2024-02-23T17:52:58;4.00;66.90
20574;DHT22;10445;50.216;7.912;2024-02-23T17:55:26;3.90;67.60
20574;DHT22;10445;50.216;7.912;2024-02-23T17:57:56;3.90;68.30
20574;DHT22;10445;50.216;7.912;2024-02-23T18:00:38;3.90;68.50
20574;DHT22;10445;50.216;7.912;2024-02-23T18:03:06;3.90;69.60
20574;DHT22;10445;50.216;7.912;2024-02-23T18:05:34;3.90;70.70
20574;DHT22;10445;50.216;7.912;2024-02-23T18:08:03;3.90;69.20
20574;DHT22;10445;50.216;7.912;2024-02-23T18:10:32;3.90;69.20
20574;DHT22;10445;50.216;7.912;2024-02-23T18:13:02;3.90;70.10
20574;DHT22;10445;50.216;7.912;2024-02-23T18:15:30;3.90;70.60
20574;DHT22;10445;50.216;7.912;2024-02-23T18:17:59;3.90;71.10
20574;DHT22;10445;50.216;7.912;2024-02-23T18:20:27;3.80;71.40
20574;DHT22;10445;50.216;7.912;2024-02-23T18:22:55;3.80;72.10
20574;DHT22;10445;50.216;7.912;2024-02-23T18:25:24;3.80;73.00
20574;DHT22;10445;50.216;7.912;2024-02-23T18:27:52;3.70;73.50
20574;DHT22;10445;50.216;7.912;2024-02-23T18:30:21;3.70;73.90
20574;DHT22;10445;50.216;7.912;2024-02-23T18:32:49;3.60;74.70
20574;DHT22;10445;50.216;7.912;2024-02-23T18:35:18;3.60;75.40
20574;DHT22;10445;50.216;7.912;2024-02-23T18:37:46;3.60;76.20
20574;DHT22;10445;50.216;7.912;2024-02-23T18:40:14;3.60;77.20
20574;DHT22;10445;50.216;7.912;2024-02-23T18:42:42;3.50;76.60
20574;DHT22;10445;50.216;7.912;2024-02-23T18:45:13;3.60;76.80
20574;DHT22;10445;50.216;7.912;2024-02-23T18:47:42;3.50;77.20
20574;DHT22;10445;50.216;7.912;2024-02-23T18:50:11;3.50;77.80
20574;DHT22;10445;50.216;7.912;2024-02-23T18:52:40;3.50;78.20
20574;DHT22;10445;50.216;7.912;2024-02-23T18:55:08;3.40;78.70
20574;DHT22;10445;50.216;7.912;2024-02-23T18:57:36;3.40;79.00
20574;DHT22;10445;50.216;7.912;2024-02-23T19:00:05;3.40;79.30
20574;DHT22;10445;50.216;7.912;2024-02-23T19:02:34;3.30;80.90
20574;DHT22;10445;50.216;7.912;2024-02-23T19:05:04;3.30;81.70
20574;DHT22;10445;50.216;7.912;2024-02-23T19:07:33;3.30;82.30
20574;DHT22;10445;50.216;7.912;2024-02-23T19:10:01;3.40;82.60
20574;DHT22;10445;50.216;7.912;2024-02-23T19:12:29;3.40;81.70
20574;DHT22;10445;50.216;7.912;2024-02-23T19:14:57;3.40;81.40
20574;DHT22;10445;50.216;7.912;2024-02-23T19:17:26;3.40;81.20
20574;DHT22;10445;50.216;7.912;2024-02-23T19:19:54;3.50;80.70
20574;DHT22;10445;50.216;7.912;2024-02-23T19:22:24;3.50;80.50
20574;DHT22;10445;50.216;7.912;2024-02-23T19:24:53;3.40;80.20
20574;DHT22;10445;50.216;7.912;2024-02-23T19:27:22;3.40;80.50
20574;DHT22;10445;50.216;7.912;2024-02-23T19:29:50;3.40;81.30
20574;DHT22;10445;50.216;7.912;2024-02-23T19:32:19;3.40;80.80
20574;DHT22;10445;50.216;7.912;2024-02-23T19:34:47;3.40;80.40
20574;DHT22;10445;50.216;7.912;2024-02-23T19:37:15;3.40;79.80
20574;DHT22;10445;50.216;7.912;2024-02-23T19:39:45;3.40;78.70
20574;DHT22;10445;50.216;7.912;2024-02-23T19:42:14;3.40;78.60
20574;DHT22;10445;50.216;7.912;2024-02-23T19:44:42;3.40;78.30
20574;DHT22;10445;50.216;7.912;2024-02-23T19:47:11;3.40;78.90
20574;DHT22;10445;50.216;7.912;2024-02-23T19:49:39;3.40;79.70
20574;DHT22;10445;50.216;7.912;2024-02-23T19:52:07;3.40;78.90
20574;DHT22;10445;50.216;7.912;2024-02-23T19:54:36;3.40;77.50
20574;DHT22;10445;50.216;7.912;2024-02-23T19:57:05;3.50;76.70
20574;DHT22;10445;50.216;7.912;2024-02-23T19:59:33;3.50;73.80
20574;DHT22;10445;50.216;7.912;2024-02-23T20:02:04;3.60;73.10
20574;DHT22;10445;50.216;7.912;2024-02-23T20:04:35;3.70;70.40
20574;DHT22;10445;50.216;7.912;2024-02-23T20:07:03;3.80;69.30
20574;DHT22;10445;50.216;7.912;2024-02-23T20:09:36;3.90;65.70
20574;DHT22;10445;50.216;7.912;2024-02-23T20:12:14;4.00;64.80
20574;DHT22;10445;50.216;7.912;2024-02-23T20:14:42;4.00;63.60
20574;DHT22;10445;50.216;7.912;2024-02-23T20:17:12;4.00;64.10
20574;DHT22;10445;50.216;7.912;2024-02-23T20:19:40;4.00;65.00
20574;DHT22;10445;50.216;7.912;2024-02-23T20:22:08;3.90;66.30
20574;DHT22;10445;50.216;7.912;2024-02-23T20:24:40;3.90;66.30
20574;DHT22;10445;50.216;7.912;2024-02-23T20:27:09;3.90;66.60
20574;DHT22;10445;50.216;7.912;2024-02-23T20:29:38;3.90;66.70
20574;DHT22;10445;50.216;7.912;2024-02-23T20:32:06;3.80;67.00
20574;DHT22;10445;50.216;7.912;2024-02-23T20:34:48;3.70;67.80
20574;DHT22;10445;50.216;7.912;2024-02-23T20:37:16;3.60;69.00
20574;DHT22;10445;50.216;7.912;2024-02-23T20:39:44;3.50;70.70
20574;DHT22;10445;50.216;7.912;2024-02-23T20:42:12;3.50;71.50
20574;DHT22;10445;50.216;7.912;2024-02-23T20:44:42;3.40;71.70
20574;DHT22;10445;50.216;7.912;2024-02-23T20:47:10;3.30;73.80
20574;DHT22;10445;50.216;7.912;2024-02-23T20:49:38;3.20;74.00
20574;DHT22;10445;50.216;7.912;2024-02-23T20:52:06;3.20;75.60
20574;DHT22;10445;50.216;7.912;2024-02-23T20:54:36;3.10;77.20
20574;DHT22;10445;50.216;7.912;2024-02-23T20:57:09;3.10;78.40
20574;DHT22;10445;50.216;7.912;2024-02-23T20:59:37;3.30;78.00
20574;DHT22;10445;50.216;7.912;2024-02-23T21:02:06;3.40;76.90
20574;DHT22;10445;50.216;7.912;2024-02-23T21:04:34;3.50;76.80
20574;DHT22;10445;50.216;7.912;2024-02-23T21:07:04;3.60;76.40
20574;DHT22;10445;50.216;7.912;2024-02-23T21:09:33;3.60;76.30
20574;DHT22;10445;50.216;7.912;2024-02-23T21:12:01;3.60;75.60
20574;DHT22;10445;50.216;7.912;2024-02-23T21:14:29;3.60;75.80
20574;DHT22;10445;50.216;7.912;2024-02-23T21:16:57;3.60;74.80
20574;DHT22;10445;50.216;7.912;2024-02-23T21:19:27;3.60;73.80
20574;DHT22;10445;50.216;7.912;2024-02-23T21:21:55;3.60;72.50
20574;DHT22;10445;50.216;7.912;2024-02-23T21:24:25;3.60;71.60
20574;DHT22;10445;50.216;7.912;2024-02-23T21:26:53;3.60;71.20
20574;DHT22;10445;50.216;7.912;2024-02-23T21:29:21;3.50;71.60
20574;DHT22;10445;50.216;7.912;2024-02-23T21:31:49;3.50;72.00
20574;DHT22;10445;50.216;7.912;2024-02-23T21:34:17;3.40;72.70
20574;DHT22;10445;50.216;7.912;2024-02-23T21:36:46;3.30;74.30
20574;DHT22;10445;50.216;7.912;2024-02-23T21:39:14;3.30;75.70
20574;DHT22;10445;50.216;7.912;2024-02-23T21:41:42;3.40;76.40
20574;DHT22;10445;50.216;7.912;2024-02-23T21:44:10;3.50;75.50
20574;DHT22;10445;50.216;7.912;2024-02-23T21:46:39;3.50;74.20
20574;DHT22;10445;50.216;7.912;2024-02-23T21:49:07;3.50;73.50
20574;DHT22;10445;50.216;7.912;2024-02-23T21:51:35;3.50;73.60
20574;DHT22;10445;50.216;7.912;2024-02-23T21:54:05;3.50;75.20
20574;DHT22;10445;50.216;7.912;2024-02-23T21:56:33;3.50;76.20
20574;DHT22;10445;50.216;7.912;2024-02-23T21:59:01;3.50;76.80
20574;DHT22;10445;50.216;7.912;2024-02-23T22:01:29;3.60;77.30
20574;DHT22;10445;50.216;7.912;2024-02-23T22:04:00;3.60;76.40
20574;DHT22;10445;50.216;7.912;2024-02-23T22:06:28;3.60;76.40
20574;DHT22;10445;50.216;7.912;2024-02-23T22:08:56;3.60;76.30
20574;DHT22;10445;50.216;7.912;2024-02-23T22:11:25;3.60;76.70
20574;DHT22;10445;50.216;7.912;2024-02-23T22:13:53;3.60;77.10
20574;DHT22;10445;50.216;7.912;2024-02-23T22:16:21;3.70;77.40
20574;DHT22;10445;50.216;7.912;2024-02-23T22:18:49;3.70;77.80
20574;DHT22;10445;50.216;7.912;2024-02-23T22:21:18;3.70;78.10
20574;DHT22;10445;50.216;7.912;2024-02-23T22:23:50;3.80;77.50
20574;DHT22;10445;50.216;7.912;2024-02-23T22:26:18;3.70;76.80
20574;DHT22;10445;50.216;7.912;2024-02-23T22:28:47;3.80;75.90
20574;DHT22;10445;50.216;7.912;2024-02-23T22:31:15;3.90;75.70